createdAt,value
2023-04-23T00:01:53.526Z,99.90
2023-04-23T00:11:58.078Z,99.90
2023-04-23T00:22:03.079Z,99.90
2023-04-23T00:32:07.713Z,99.90
2023-04-23T00:42:13.701Z,99.90
2023-04-23T00:52:17.448Z,99.90
2023-04-23T01:02:22.618Z,99.90
2023-04-23T01:12:26.391Z,99.90
2023-04-23T01:22:31.390Z,99.90
2023-04-23T01:32:35.994Z,99.90
2023-04-23T01:42:41.750Z,99.90
2023-04-23T01:52:46.414Z,99.90
2023-04-23T02:02:52.836Z,99.90
2023-04-23T02:12:56.605Z,99.90
2023-04-23T02:23:02.234Z,99.90
2023-04-23T02:33:07.444Z,99.90
2023-04-23T02:43:12.326Z,99.90
2023-04-23T02:53:16.306Z,99.90
2023-04-23T03:03:21.479Z,99.90
2023-04-23T03:13:25.836Z,99.90
2023-04-23T03:23:30.956Z,99.90
2023-04-23T03:33:34.777Z,99.90
2023-04-23T03:43:39.679Z,99.90
2023-04-23T03:53:43.435Z,99.90
2023-04-23T04:03:48.810Z,99.90
2023-04-23T04:13:55.603Z,99.90
2023-04-23T04:24:04.658Z,99.90
2023-04-23T04:34:10.513Z,99.90
2023-04-23T04:44:16.587Z,99.90
2023-04-23T04:54:21.855Z,99.90
2023-04-23T05:04:26.847Z,99.90
2023-04-23T05:14:30.613Z,99.90
2023-04-23T05:24:38.510Z,99.90
2023-04-23T05:34:42.387Z,99.90
2023-04-23T05:44:47.584Z,99.90
2023-04-23T05:54:51.607Z,99.90
2023-04-23T06:04:56.801Z,99.90
2023-04-23T06:15:00.715Z,99.90
2023-04-23T06:25:07.312Z,99.90
2023-04-23T06:35:11.130Z,99.90
2023-04-23T06:45:16.884Z,99.90
2023-04-23T06:55:22.001Z,99.90
2023-04-23T07:05:27.172Z,99.90
2023-04-23T07:15:30.755Z,99.90
2023-04-23T07:25:35.686Z,99.90
2023-04-23T07:35:39.291Z,99.90
2023-04-23T07:45:44.278Z,99.90
2023-04-23T07:55:47.981Z,99.90
2023-04-23T08:05:52.995Z,99.90
2023-04-23T08:15:56.616Z,99.90
2023-04-23T08:26:02.843Z,99.90
2023-04-23T08:36:06.874Z,99.90
2023-04-23T08:46:14.315Z,98.80
2023-04-23T08:56:18.380Z,97.80
2023-04-23T09:06:23.473Z,98.40
2023-04-23T09:16:28.171Z,99.40
2023-04-23T09:26:33.192Z,99.00
2023-04-23T09:36:38.330Z,98.10
2023-04-23T09:46:45.464Z,96.70
2023-04-23T09:56:53.725Z,94.90
2023-04-23T10:17:11.936Z,88.70
2023-04-23T10:27:30.808Z,88.40
2023-04-23T10:37:41.340Z,90.70
2023-04-23T10:47:47.263Z,88.10
2023-04-23T10:58:01.628Z,84.90
2023-04-23T11:08:18.809Z,81.00
2023-04-23T11:18:25.290Z,80.10
2023-04-23T11:28:34.281Z,79.30
2023-04-23T11:38:38.735Z,75.90
2023-04-23T11:48:43.716Z,76.50
2023-04-23T11:58:47.541Z,76.90
2023-04-23T12:08:52.648Z,76.10
2023-04-23T12:18:56.371Z,77.10
2023-04-23T12:29:01.459Z,72.50
2023-04-23T12:39:27.365Z,70.10
2023-04-23T12:49:33.261Z,69.10
2023-04-23T12:59:36.859Z,68.30
2023-04-23T13:09:42.251Z,66.70
2023-04-23T13:19:46.421Z,67.00
2023-04-23T13:29:51.403Z,64.10
2023-04-23T13:39:54.972Z,66.90
2023-04-23T13:50:00.002Z,65.90
2023-04-23T14:00:04.197Z,60.90
2023-04-23T14:10:10.601Z,54.00
2023-04-23T14:20:15.855Z,55.60
2023-04-23T14:30:24.880Z,56.40
2023-04-23T14:40:28.461Z,53.80
2023-04-23T14:50:33.592Z,53.60
2023-04-23T15:00:37.783Z,53.40
2023-04-23T15:10:44.966Z,53.90
2023-04-23T15:20:48.916Z,53.40
2023-04-23T15:30:54.280Z,55.30
2023-04-23T15:40:57.962Z,54.10
2023-04-23T15:51:02.892Z,53.00
2023-04-23T16:01:07.307Z,54.70
2023-04-23T16:11:14.718Z,56.40
2023-04-23T16:21:18.426Z,56.20
2023-04-23T16:31:23.745Z,56.50
2023-04-23T16:41:27.512Z,60.80
2023-04-23T16:51:33.062Z,62.50
2023-04-23T17:01:36.811Z,87.90
2023-04-23T17:11:42.032Z,96.00
2023-04-23T17:21:45.890Z,99.90
2023-04-23T17:31:51.254Z,99.90
2023-04-23T17:41:57.612Z,99.90
2023-04-23T17:52:03.366Z,99.90
2023-04-23T18:02:07.222Z,99.90
2023-04-23T18:12:12.228Z,99.90
2023-04-23T18:22:16.492Z,99.90
2023-04-23T18:32:33.634Z,99.90
2023-04-23T18:42:38.366Z,99.90
2023-04-23T18:52:43.422Z,99.90
2023-04-23T19:02:48.476Z,99.90
2023-04-23T19:12:57.184Z,99.90
2023-04-23T19:23:01.372Z,99.90
2023-04-23T19:33:06.501Z,99.90
2023-04-23T19:43:12.186Z,99.90
2023-04-23T19:53:18.506Z,99.90
2023-04-23T20:03:22.443Z,99.90
2023-04-23T20:13:27.638Z,99.90
2023-04-23T20:23:31.418Z,99.90
2023-04-23T20:33:37.405Z,99.90
2023-04-23T20:43:43.670Z,99.90
2023-04-23T20:53:49.299Z,99.90
2023-04-23T21:03:53.754Z,99.90
2023-04-23T21:14:00.956Z,99.90
2023-04-23T21:24:04.993Z,99.90
2023-04-23T21:34:10.303Z,99.90
2023-04-23T21:44:14.232Z,99.90
2023-04-23T21:54:19.169Z,99.90
2023-04-23T22:04:23.092Z,99.90
2023-04-23T22:14:28.183Z,99.90
2023-04-23T22:24:31.962Z,99.90
2023-04-23T22:34:36.991Z,99.90
2023-04-23T22:44:40.711Z,99.90
2023-04-23T22:54:46.753Z,99.90
2023-04-23T23:04:50.863Z,99.90
2023-04-23T23:14:56.095Z,99.90
2023-04-23T23:24:59.990Z,99.90
2023-04-23T23:35:06.436Z,99.90
2023-04-23T23:45:11.266Z,99.90
2023-04-23T23:55:16.329Z,99.90
